Terminal Aerodrome Forecast
Issued by NWS Goodland, KS

Home | Current Version | Previous Version | Text Only | Print | Product List | Glossary On
Versions: 1 2 3 4 5 6 7 8 9 10 11 12 13 14 15 16 17 18 19 20 21
000
FTUS43 KGLD 011158 CCA
TAFGLD
TAF COR
KGLD 011158Z 0112/0212 34026G31KT P6SM BKN016 OVC024
      TEMPO 0112/0116 SCT016
     FM012000 35024G33KT P6SM SCT030
     FM020000 35015G25KT P6SM SKC
     FM020200 VRB06KT P6SM SKC
     FM020500 21010KT P6SM SKC=

USA.gov is the U.S. government's official web portal to all federal, state and local government web resources and services.